sensor_id;sensor_type;location;lat;lon;timestamp;P1;durP1;ratioP1;P2;durP2;ratioP2
75851;SDS011;64500;52.632;20.656;2022-12-13T00:01:25;14.40;;;6.70;;
75851;SDS011;64500;52.632;20.656;2022-12-13T00:03:54;13.40;;;6.00;;
75851;SDS011;64500;52.632;20.656;2022-12-13T00:06:22;13.30;;;5.50;;
75851;SDS011;64500;52.632;20.656;2022-12-13T00:08:49;12.50;;;5.70;;
75851;SDS011;64500;52.632;20.656;2022-12-13T00:11:17;13.00;;;6.00;;
75851;SDS011;64500;52.632;20.656;2022-12-13T00:13:44;13.20;;;6.70;;
75851;SDS011;64500;52.632;20.656;2022-12-13T00:16:16;14.20;;;6.10;;
75851;SDS011;64500;52.632;20.656;2022-12-13T00:19:03;13.90;;;6.60;;
75851;SDS011;64500;52.632;20.656;2022-12-13T00:21:31;12.20;;;5.90;;
75851;SDS011;64500;52.632;20.656;2022-12-13T00:23:59;12.70;;;6.20;;
75851;SDS011;64500;52.632;20.656;2022-12-13T00:26:28;13.50;;;6.60;;
75851;SDS011;64500;52.632;20.656;2022-12-13T00:29:04;13.00;;;6.30;;
75851;SDS011;64500;52.632;20.656;2022-12-13T00:31:32;12.90;;;6.00;;
75851;SDS011;64500;52.632;20.656;2022-12-13T00:33:59;14.80;;;6.60;;
75851;SDS011;64500;52.632;20.656;2022-12-13T00:36:26;13.60;;;6.10;;
75851;SDS011;64500;52.632;20.656;2022-12-13T00:38:53;12.90;;;6.50;;
75851;SDS011;64500;52.632;20.656;2022-12-13T00:41:28;13.00;;;5.50;;
75851;SDS011;64500;52.632;20.656;2022-12-13T00:43:57;13.30;;;5.70;;
75851;SDS011;64500;52.632;20.656;2022-12-13T00:46:25;14.40;;;6.20;;
75851;SDS011;64500;52.632;20.656;2022-12-13T00:48:54;13.20;;;6.20;;
75851;SDS011;64500;52.632;20.656;2022-12-13T00:51:23;13.90;;;5.90;;
75851;SDS011;64500;52.632;20.656;2022-12-13T00:53:51;12.00;;;5.30;;
75851;SDS011;64500;52.632;20.656;2022-12-13T00:56:19;12.10;;;6.00;;
75851;SDS011;64500;52.632;20.656;2022-12-13T00:58:49;12.10;;;5.60;;
75851;SDS011;64500;52.632;20.656;2022-12-13T01:01:17;10.40;;;5.10;;
75851;SDS011;64500;52.632;20.656;2022-12-13T01:03:44;13.90;;;5.70;;
75851;SDS011;64500;52.632;20.656;2022-12-13T01:06:13;11.90;;;5.30;;
75851;SDS011;64500;52.632;20.656;2022-12-13T01:09:01;11.70;;;5.10;;
75851;SDS011;64500;52.632;20.656;2022-12-13T01:11:30;11.60;;;5.20;;
75851;SDS011;64500;52.632;20.656;2022-12-13T01:13:57;12.10;;;5.30;;
75851;SDS011;64500;52.632;20.656;2022-12-13T01:16:23;11.90;;;5.50;;
75851;SDS011;64500;52.632;20.656;2022-12-13T01:18:50;11.90;;;5.00;;
75851;SDS011;64500;52.632;20.656;2022-12-13T01:21:18;11.40;;;5.70;;
75851;SDS011;64500;52.632;20.656;2022-12-13T01:23:48;11.50;;;5.10;;
75851;SDS011;64500;52.632;20.656;2022-12-13T01:26:17;10.90;;;5.30;;
75851;SDS011;64500;52.632;20.656;2022-12-13T01:28:46;13.70;;;5.30;;
75851;SDS011;64500;52.632;20.656;2022-12-13T01:31:15;11.30;;;5.10;;
75851;SDS011;64500;52.632;20.656;2022-12-13T01:33:45;12.30;;;5.00;;
75851;SDS011;64500;52.632;20.656;2022-12-13T01:36:14;11.60;;;5.00;;
75851;SDS011;64500;52.632;20.656;2022-12-13T01:38:42;13.60;;;6.40;;
75851;SDS011;64500;52.632;20.656;2022-12-13T01:41:19;11.00;;;5.00;;
75851;SDS011;64500;52.632;20.656;2022-12-13T01:46:14;10.90;;;4.80;;
75851;SDS011;64500;52.632;20.656;2022-12-13T01:48:51;11.90;;;5.40;;
75851;SDS011;64500;52.632;20.656;2022-12-13T01:51:47;12.00;;;5.30;;
75851;SDS011;64500;52.632;20.656;2022-12-13T01:54:18;9.70;;;5.00;;
75851;SDS011;64500;52.632;20.656;2022-12-13T01:56:51;11.30;;;5.40;;
75851;SDS011;64500;52.632;20.656;2022-12-13T01:59:21;11.10;;;5.10;;
75851;SDS011;64500;52.632;20.656;2022-12-13T02:01:48;11.50;;;5.40;;
75851;SDS011;64500;52.632;20.656;2022-12-13T02:04:17;13.40;;;5.60;;
75851;SDS011;64500;52.632;20.656;2022-12-13T02:06:49;11.70;;;5.20;;
75851;SDS011;64500;52.632;20.656;2022-12-13T02:09:16;12.90;;;5.40;;
75851;SDS011;64500;52.632;20.656;2022-12-13T02:11:44;12.30;;;5.80;;
75851;SDS011;64500;52.632;20.656;2022-12-13T02:14:12;11.50;;;5.60;;
75851;SDS011;64500;52.632;20.656;2022-12-13T02:16:45;12.20;;;5.70;;
75851;SDS011;64500;52.632;20.656;2022-12-13T02:19:37;12.20;;;6.00;;
75851;SDS011;64500;52.632;20.656;2022-12-13T02:28:21;12.60;;;6.10;;
75851;SDS011;64500;52.632;20.656;2022-12-13T02:30:50;13.10;;;6.40;;
75851;SDS011;64500;52.632;20.656;2022-12-13T02:33:24;13.30;;;6.40;;
75851;SDS011;64500;52.632;20.656;2022-12-13T02:36:19;12.40;;;5.60;;
75851;SDS011;64500;52.632;20.656;2022-12-13T02:38:56;12.70;;;5.50;;
75851;SDS011;64500;52.632;20.656;2022-12-13T02:41:48;11.20;;;5.20;;
75851;SDS011;64500;52.632;20.656;2022-12-13T02:44:23;12.50;;;6.10;;
75851;SDS011;64500;52.632;20.656;2022-12-13T02:46:58;12.20;;;5.80;;
75851;SDS011;64500;52.632;20.656;2022-12-13T02:49:31;12.50;;;6.20;;
75851;SDS011;64500;52.632;20.656;2022-12-13T02:52:03;13.10;;;5.60;;
75851;SDS011;64500;52.632;20.656;2022-12-13T02:54:33;11.10;;;5.90;;
75851;SDS011;64500;52.632;20.656;2022-12-13T02:57:01;11.90;;;5.50;;
75851;SDS011;64500;52.632;20.656;2022-12-13T02:59:33;11.20;;;5.40;;
75851;SDS011;64500;52.632;20.656;2022-12-13T03:02:16;11.60;;;5.60;;
75851;SDS011;64500;52.632;20.656;2022-12-13T03:11:04;12.10;;;5.40;;
75851;SDS011;64500;52.632;20.656;2022-12-13T03:16:30;11.70;;;5.10;;
75851;SDS011;64500;52.632;20.656;2022-12-13T03:19:10;11.70;;;5.60;;
75851;SDS011;64500;52.632;20.656;2022-12-13T03:21:48;11.00;;;5.40;;
75851;SDS011;64500;52.632;20.656;2022-12-13T03:24:16;10.70;;;5.80;;
75851;SDS011;64500;52.632;20.656;2022-12-13T03:26:45;10.40;;;5.00;;
75851;SDS011;64500;52.632;20.656;2022-12-13T03:29:15;9.60;;;5.00;;
75851;SDS011;64500;52.632;20.656;2022-12-13T03:31:42;12.10;;;5.70;;
75851;SDS011;64500;52.632;20.656;2022-12-13T03:34:09;11.00;;;5.20;;
75851;SDS011;64500;52.632;20.656;2022-12-13T03:36:36;10.60;;;5.20;;
75851;SDS011;64500;52.632;20.656;2022-12-13T03:39:03;12.40;;;5.80;;
75851;SDS011;64500;52.632;20.656;2022-12-13T03:41:30;12.70;;;5.60;;
75851;SDS011;64500;52.632;20.656;2022-12-13T03:44:03;10.70;;;5.50;;
75851;SDS011;64500;52.632;20.656;2022-12-13T03:46:32;11.80;;;5.50;;
75851;SDS011;64500;52.632;20.656;2022-12-13T03:48:59;11.00;;;5.70;;
75851;SDS011;64500;52.632;20.656;2022-12-13T03:51:27;11.10;;;5.50;;
75851;SDS011;64500;52.632;20.656;2022-12-13T03:53:54;10.60;;;5.20;;
75851;SDS011;64500;52.632;20.656;2022-12-13T03:56:21;12.10;;;5.30;;
75851;SDS011;64500;52.632;20.656;2022-12-13T03:58:48;10.40;;;5.10;;
75851;SDS011;64500;52.632;20.656;2022-12-13T04:01:15;11.10;;;5.50;;
75851;SDS011;64500;52.632;20.656;2022-12-13T04:03:44;11.20;;;5.30;;
75851;SDS011;64500;52.632;20.656;2022-12-13T04:06:12;10.80;;;5.30;;
75851;SDS011;64500;52.632;20.656;2022-12-13T04:08:41;9.70;;;4.90;;
75851;SDS011;64500;52.632;20.656;2022-12-13T04:11:08;9.30;;;4.70;;
75851;SDS011;64500;52.632;20.656;2022-12-13T04:13:54;10.80;;;5.20;;
75851;SDS011;64500;52.632;20.656;2022-12-13T04:16:22;9.90;;;5.10;;
75851;SDS011;64500;52.632;20.656;2022-12-13T04:18:49;10.40;;;5.20;;
75851;SDS011;64500;52.632;20.656;2022-12-13T04:21:16;10.90;;;5.00;;
75851;SDS011;64500;52.632;20.656;2022-12-13T04:23:43;10.20;;;5.00;;
75851;SDS011;64500;52.632;20.656;2022-12-13T04:26:10;11.00;;;4.90;;
75851;SDS011;64500;52.632;20.656;2022-12-13T04:28:37;9.90;;;4.80;;
75851;SDS011;64500;52.632;20.656;2022-12-13T04:31:04;12.40;;;5.70;;
75851;SDS011;64500;52.632;20.656;2022-12-13T04:33:31;9.90;;;5.40;;
75851;SDS011;64500;52.632;20.656;2022-12-13T04:35:59;11.00;;;5.30;;
75851;SDS011;64500;52.632;20.656;2022-12-13T04:38:26;12.00;;;5.70;;
75851;SDS011;64500;52.632;20.656;2022-12-13T04:40:53;11.80;;;6.10;;
75851;SDS011;64500;52.632;20.656;2022-12-13T04:43:30;10.40;;;5.90;;
75851;SDS011;64500;52.632;20.656;2022-12-13T04:45:57;12.20;;;6.80;;
75851;SDS011;64500;52.632;20.656;2022-12-13T04:48:24;11.40;;;6.20;;
75851;SDS011;64500;52.632;20.656;2022-12-13T04:50:52;11.90;;;6.20;;
75851;SDS011;64500;52.632;20.656;2022-12-13T04:53:19;12.20;;;6.40;;
75851;SDS011;64500;52.632;20.656;2022-12-13T04:55:46;11.70;;;6.40;;
75851;SDS011;64500;52.632;20.656;2022-12-13T04:58:13;11.50;;;6.10;;
75851;SDS011;64500;52.632;20.656;2022-12-13T05:00:40;10.70;;;6.00;;
75851;SDS011;64500;52.632;20.656;2022-12-13T05:03:07;11.40;;;6.80;;
75851;SDS011;64500;52.632;20.656;2022-12-13T05:05:36;12.00;;;6.30;;
75851;SDS011;64500;52.632;20.656;2022-12-13T05:08:06;13.00;;;7.60;;
75851;SDS011;64500;52.632;20.656;2022-12-13T05:10:34;11.40;;;6.80;;
75851;SDS011;64500;52.632;20.656;2022-12-13T05:13:01;10.60;;;6.30;;
75851;SDS011;64500;52.632;20.656;2022-12-13T05:15:28;12.70;;;7.10;;
75851;SDS011;64500;52.632;20.656;2022-12-13T05:18:02;14.20;;;7.40;;
75851;SDS011;64500;52.632;20.656;2022-12-13T05:20:33;12.70;;;7.30;;
75851;SDS011;64500;52.632;20.656;2022-12-13T05:23:01;13.50;;;7.20;;
75851;SDS011;64500;52.632;20.656;2022-12-13T05:25:27;12.20;;;7.40;;
75851;SDS011;64500;52.632;20.656;2022-12-13T05:27:55;11.40;;;7.00;;
75851;SDS011;64500;52.632;20.656;2022-12-13T05:30:23;13.50;;;8.10;;
75851;SDS011;64500;52.632;20.656;2022-12-13T05:32:50;13.20;;;7.20;;
75851;SDS011;64500;52.632;20.656;2022-12-13T05:35:17;12.70;;;7.40;;
75851;SDS011;64500;52.632;20.656;2022-12-13T05:37:45;12.50;;;8.20;;
75851;SDS011;64500;52.632;20.656;2022-12-13T05:40:11;13.00;;;7.70;;
75851;SDS011;64500;52.632;20.656;2022-12-13T05:42:38;13.10;;;7.20;;
75851;SDS011;64500;52.632;20.656;2022-12-13T05:45:06;14.70;;;8.40;;
75851;SDS011;64500;52.632;20.656;2022-12-13T05:47:33;15.70;;;8.20;;
75851;SDS011;64500;52.632;20.656;2022-12-13T05:50:00;14.30;;;8.80;;
75851;SDS011;64500;52.632;20.656;2022-12-13T05:52:27;14.40;;;8.50;;
75851;SDS011;64500;52.632;20.656;2022-12-13T05:54:55;13.70;;;8.50;;
75851;SDS011;64500;52.632;20.656;2022-12-13T05:57:22;14.60;;;9.10;;
75851;SDS011;64500;52.632;20.656;2022-12-13T05:59:50;17.20;;;9.50;;
75851;SDS011;64500;52.632;20.656;2022-12-13T06:02:18;15.30;;;9.10;;
75851;SDS011;64500;52.632;20.656;2022-12-13T06:04:45;15.60;;;9.90;;
75851;SDS011;64500;52.632;20.656;2022-12-13T06:07:12;15.10;;;9.50;;
75851;SDS011;64500;52.632;20.656;2022-12-13T06:09:40;17.40;;;10.00;;
75851;SDS011;64500;52.632;20.656;2022-12-13T06:12:08;16.80;;;10.10;;
75851;SDS011;64500;52.632;20.656;2022-12-13T06:14:36;18.40;;;10.70;;
75851;SDS011;64500;52.632;20.656;2022-12-13T06:17:03;18.30;;;10.10;;
75851;SDS011;64500;52.632;20.656;2022-12-13T06:19:30;18.60;;;10.80;;
75851;SDS011;64500;52.632;20.656;2022-12-13T06:21:57;18.30;;;10.40;;
75851;SDS011;64500;52.632;20.656;2022-12-13T06:24:23;19.00;;;10.50;;
75851;SDS011;64500;52.632;20.656;2022-12-13T06:26:53;17.60;;;10.80;;
75851;SDS011;64500;52.632;20.656;2022-12-13T06:29:21;17.40;;;10.30;;
75851;SDS011;64500;52.632;20.656;2022-12-13T06:31:56;18.10;;;10.20;;
75851;SDS011;64500;52.632;20.656;2022-12-13T06:34:24;19.00;;;10.60;;
75851;SDS011;64500;52.632;20.656;2022-12-13T06:36:51;18.20;;;10.60;;
75851;SDS011;64500;52.632;20.656;2022-12-13T06:39:18;17.10;;;10.40;;
75851;SDS011;64500;52.632;20.656;2022-12-13T06:41:45;17.20;;;10.50;;
75851;SDS011;64500;52.632;20.656;2022-12-13T06:44:12;18.70;;;10.60;;
75851;SDS011;64500;52.632;20.656;2022-12-13T06:46:39;17.10;;;10.20;;
75851;SDS011;64500;52.632;20.656;2022-12-13T06:49:06;17.00;;;10.00;;
75851;SDS011;64500;52.632;20.656;2022-12-13T06:51:33;20.00;;;11.30;;
75851;SDS011;64500;52.632;20.656;2022-12-13T06:54:00;18.70;;;10.40;;
75851;SDS011;64500;52.632;20.656;2022-12-13T06:56:30;19.40;;;10.40;;
75851;SDS011;64500;52.632;20.656;2022-12-13T06:58:58;17.60;;;10.30;;
75851;SDS011;64500;52.632;20.656;2022-12-13T07:01:25;18.80;;;10.70;;
75851;SDS011;64500;52.632;20.656;2022-12-13T07:03:53;18.10;;;10.30;;
75851;SDS011;64500;52.632;20.656;2022-12-13T07:06:21;19.90;;;11.30;;
75851;SDS011;64500;52.632;20.656;2022-12-13T07:08:51;17.50;;;10.50;;
75851;SDS011;64500;52.632;20.656;2022-12-13T07:11:24;17.70;;;10.10;;
75851;SDS011;64500;52.632;20.656;2022-12-13T07:13:52;18.80;;;10.20;;
75851;SDS011;64500;52.632;20.656;2022-12-13T07:16:21;19.30;;;11.00;;
75851;SDS011;64500;52.632;20.656;2022-12-13T07:18:56;19.60;;;10.20;;
75851;SDS011;64500;52.632;20.656;2022-12-13T07:21:25;17.70;;;10.60;;
75851;SDS011;64500;52.632;20.656;2022-12-13T07:23:53;20.00;;;10.20;;
75851;SDS011;64500;52.632;20.656;2022-12-13T07:26:20;19.80;;;10.60;;
75851;SDS011;64500;52.632;20.656;2022-12-13T07:28:47;19.40;;;11.20;;
75851;SDS011;64500;52.632;20.656;2022-12-13T07:31:14;17.40;;;10.20;;
75851;SDS011;64500;52.632;20.656;2022-12-13T07:33:41;17.90;;;10.80;;
75851;SDS011;64500;52.632;20.656;2022-12-13T07:36:13;17.80;;;10.50;;
75851;SDS011;64500;52.632;20.656;2022-12-13T07:41:08;15.20;;;9.50;;
75851;SDS011;64500;52.632;20.656;2022-12-13T07:43:36;18.00;;;10.10;;
75851;SDS011;64500;52.632;20.656;2022-12-13T07:46:04;17.60;;;9.60;;
75851;SDS011;64500;52.632;20.656;2022-12-13T07:48:32;16.70;;;10.30;;
75851;SDS011;64500;52.632;20.656;2022-12-13T07:51:00;16.40;;;9.80;;
75851;SDS011;64500;52.632;20.656;2022-12-13T07:53:28;16.50;;;10.00;;
75851;SDS011;64500;52.632;20.656;2022-12-13T07:55:56;16.70;;;9.40;;
75851;SDS011;64500;52.632;20.656;2022-12-13T07:58:23;16.60;;;10.20;;
75851;SDS011;64500;52.632;20.656;2022-12-13T08:00:50;17.40;;;9.50;;
75851;SDS011;64500;52.632;20.656;2022-12-13T08:03:18;16.40;;;10.20;;
75851;SDS011;64500;52.632;20.656;2022-12-13T08:05:45;16.70;;;9.20;;
75851;SDS011;64500;52.632;20.656;2022-12-13T08:08:12;16.90;;;9.30;;
75851;SDS011;64500;52.632;20.656;2022-12-13T08:10:39;15.00;;;8.90;;
75851;SDS011;64500;52.632;20.656;2022-12-13T08:13:06;15.80;;;9.30;;
75851;SDS011;64500;52.632;20.656;2022-12-13T08:15:33;14.60;;;9.00;;
75851;SDS011;64500;52.632;20.656;2022-12-13T08:18:01;15.70;;;9.00;;
75851;SDS011;64500;52.632;20.656;2022-12-13T08:20:29;15.10;;;9.00;;
75851;SDS011;64500;52.632;20.656;2022-12-13T08:22:56;14.90;;;8.60;;
75851;SDS011;64500;52.632;20.656;2022-12-13T08:25:24;16.00;;;9.10;;
75851;SDS011;64500;52.632;20.656;2022-12-13T08:27:52;17.20;;;9.50;;
75851;SDS011;64500;52.632;20.656;2022-12-13T08:30:19;15.30;;;9.30;;
75851;SDS011;64500;52.632;20.656;2022-12-13T08:32:48;16.20;;;9.30;;
75851;SDS011;64500;52.632;20.656;2022-12-13T08:35:16;15.00;;;9.30;;
75851;SDS011;64500;52.632;20.656;2022-12-13T08:37:43;14.60;;;9.00;;
75851;SDS011;64500;52.632;20.656;2022-12-13T08:40:10;15.80;;;9.50;;
75851;SDS011;64500;52.632;20.656;2022-12-13T08:42:37;15.70;;;9.30;;
75851;SDS011;64500;52.632;20.656;2022-12-13T08:45:04;15.00;;;8.80;;
75851;SDS011;64500;52.632;20.656;2022-12-13T08:47:32;16.80;;;9.40;;
75851;SDS011;64500;52.632;20.656;2022-12-13T08:49:59;15.90;;;9.50;;
75851;SDS011;64500;52.632;20.656;2022-12-13T08:52:26;16.30;;;9.00;;
75851;SDS011;64500;52.632;20.656;2022-12-13T08:54:52;16.30;;;10.00;;
75851;SDS011;64500;52.632;20.656;2022-12-13T08:57:19;15.80;;;9.20;;
75851;SDS011;64500;52.632;20.656;2022-12-13T08:59:46;15.60;;;8.60;;
75851;SDS011;64500;52.632;20.656;2022-12-13T09:02:13;15.10;;;9.30;;
75851;SDS011;64500;52.632;20.656;2022-12-13T09:04:41;17.90;;;9.70;;
75851;SDS011;64500;52.632;20.656;2022-12-13T09:07:09;18.00;;;9.70;;
75851;SDS011;64500;52.632;20.656;2022-12-13T09:09:36;16.20;;;9.20;;
75851;SDS011;64500;52.632;20.656;2022-12-13T09:12:03;14.80;;;8.40;;
75851;SDS011;64500;52.632;20.656;2022-12-13T09:14:31;15.50;;;8.90;;
75851;SDS011;64500;52.632;20.656;2022-12-13T09:16:58;15.40;;;9.10;;
75851;SDS011;64500;52.632;20.656;2022-12-13T09:19:26;15.80;;;9.50;;
75851;SDS011;64500;52.632;20.656;2022-12-13T09:21:53;14.80;;;8.90;;
75851;SDS011;64500;52.632;20.656;2022-12-13T09:24:20;15.00;;;9.00;;
75851;SDS011;64500;52.632;20.656;2022-12-13T09:26:47;14.50;;;8.60;;
75851;SDS011;64500;52.632;20.656;2022-12-13T09:29:15;17.20;;;8.40;;
75851;SDS011;64500;52.632;20.656;2022-12-13T09:31:41;16.30;;;8.60;;
75851;SDS011;64500;52.632;20.656;2022-12-13T09:34:09;15.60;;;8.70;;
75851;SDS011;64500;52.632;20.656;2022-12-13T09:36:36;14.90;;;8.60;;
75851;SDS011;64500;52.632;20.656;2022-12-13T09:39:03;16.20;;;9.20;;
75851;SDS011;64500;52.632;20.656;2022-12-13T09:41:34;16.60;;;9.20;;
75851;SDS011;64500;52.632;20.656;2022-12-13T09:44:09;15.00;;;8.70;;
75851;SDS011;64500;52.632;20.656;2022-12-13T09:46:42;16.40;;;8.90;;
75851;SDS011;64500;52.632;20.656;2022-12-13T09:49:13;15.70;;;9.10;;
75851;SDS011;64500;52.632;20.656;2022-12-13T09:51:44;16.30;;;10.00;;
75851;SDS011;64500;52.632;20.656;2022-12-13T09:54:17;16.60;;;8.30;;
75851;SDS011;64500;52.632;20.656;2022-12-13T09:56:47;15.00;;;8.80;;
75851;SDS011;64500;52.632;20.656;2022-12-13T09:59:20;16.30;;;9.40;;
75851;SDS011;64500;52.632;20.656;2022-12-13T10:02:01;18.40;;;9.40;;
75851;SDS011;64500;52.632;20.656;2022-12-13T10:04:49;14.30;;;8.40;;
75851;SDS011;64500;52.632;20.656;2022-12-13T10:07:19;17.40;;;9.30;;
75851;SDS011;64500;52.632;20.656;2022-12-13T10:09:48;13.50;;;8.00;;
75851;SDS011;64500;52.632;20.656;2022-12-13T10:12:21;15.20;;;9.10;;
75851;SDS011;64500;52.632;20.656;2022-12-13T10:14:50;17.60;;;10.10;;
75851;SDS011;64500;52.632;20.656;2022-12-13T10:17:24;14.90;;;9.60;;
75851;SDS011;64500;52.632;20.656;2022-12-13T10:19:54;16.30;;;8.90;;
75851;SDS011;64500;52.632;20.656;2022-12-13T10:22:21;14.70;;;9.10;;
75851;SDS011;64500;52.632;20.656;2022-12-13T10:24:53;14.60;;;8.80;;
75851;SDS011;64500;52.632;20.656;2022-12-13T10:27:26;14.80;;;9.20;;
75851;SDS011;64500;52.632;20.656;2022-12-13T10:29:56;14.50;;;9.30;;
75851;SDS011;64500;52.632;20.656;2022-12-13T10:32:24;16.10;;;8.80;;
75851;SDS011;64500;52.632;20.656;2022-12-13T10:34:51;16.60;;;9.20;;
75851;SDS011;64500;52.632;20.656;2022-12-13T10:39:49;19.20;;;9.20;;
75851;SDS011;64500;52.632;20.656;2022-12-13T10:42:18;15.90;;;9.30;;
75851;SDS011;64500;52.632;20.656;2022-12-13T10:44:46;15.90;;;9.10;;
75851;SDS011;64500;52.632;20.656;2022-12-13T10:47:19;17.50;;;9.50;;
75851;SDS011;64500;52.632;20.656;2022-12-13T10:49:52;16.70;;;10.00;;
75851;SDS011;64500;52.632;20.656;2022-12-13T10:54:49;16.70;;;9.40;;
75851;SDS011;64500;52.632;20.656;2022-12-13T10:57:17;15.10;;;9.20;;
75851;SDS011;64500;52.632;20.656;2022-12-13T10:59:46;15.10;;;9.40;;
75851;SDS011;64500;52.632;20.656;2022-12-13T11:02:34;19.00;;;9.80;;
75851;SDS011;64500;52.632;20.656;2022-12-13T11:05:20;16.30;;;9.40;;
75851;SDS011;64500;52.632;20.656;2022-12-13T11:07:52;18.10;;;9.90;;
75851;SDS011;64500;52.632;20.656;2022-12-13T11:10:25;16.20;;;9.50;;
75851;SDS011;64500;52.632;20.656;2022-12-13T11:13:00;17.60;;;9.60;;
75851;SDS011;64500;52.632;20.656;2022-12-13T11:15:30;17.10;;;9.60;;
75851;SDS011;64500;52.632;20.656;2022-12-13T11:18:03;15.40;;;9.00;;
75851;SDS011;64500;52.632;20.656;2022-12-13T11:20:32;16.40;;;9.70;;
75851;SDS011;64500;52.632;20.656;2022-12-13T11:23:06;18.30;;;9.80;;
75851;SDS011;64500;52.632;20.656;2022-12-13T11:25:45;15.70;;;10.40;;
75851;SDS011;64500;52.632;20.656;2022-12-13T11:30:57;15.90;;;9.50;;
75851;SDS011;64500;52.632;20.656;2022-12-13T11:33:29;16.00;;;9.20;;
75851;SDS011;64500;52.632;20.656;2022-12-13T11:38:53;15.70;;;9.70;;
75851;SDS011;64500;52.632;20.656;2022-12-13T11:41:39;15.50;;;9.50;;
75851;SDS011;64500;52.632;20.656;2022-12-13T11:44:14;17.80;;;9.70;;
75851;SDS011;64500;52.632;20.656;2022-12-13T11:46:49;17.30;;;10.60;;
75851;SDS011;64500;52.632;20.656;2022-12-13T11:49:32;17.30;;;10.40;;
75851;SDS011;64500;52.632;20.656;2022-12-13T11:54:57;16.50;;;10.10;;
75851;SDS011;64500;52.632;20.656;2022-12-13T12:00:20;17.90;;;10.00;;
75851;SDS011;64500;52.632;20.656;2022-12-13T12:08:19;16.40;;;9.80;;
75851;SDS011;64500;52.632;20.656;2022-12-13T12:10:47;17.70;;;10.60;;
75851;SDS011;64500;52.632;20.656;2022-12-13T12:13:34;17.40;;;10.30;;
75851;SDS011;64500;52.632;20.656;2022-12-13T12:18:50;19.30;;;11.40;;
75851;SDS011;64500;52.632;20.656;2022-12-13T12:24:26;17.70;;;9.50;;
75851;SDS011;64500;52.632;20.656;2022-12-13T12:35:23;17.20;;;10.00;;
75851;SDS011;64500;52.632;20.656;2022-12-13T12:38:04;18.70;;;10.20;;
75851;SDS011;64500;52.632;20.656;2022-12-13T12:41:06;17.40;;;10.80;;
75851;SDS011;64500;52.632;20.656;2022-12-13T12:54:54;16.70;;;9.90;;
75851;SDS011;64500;52.632;20.656;2022-12-13T12:57:56;16.70;;;9.80;;
75851;SDS011;64500;52.632;20.656;2022-12-13T13:00:35;17.00;;;9.80;;
75851;SDS011;64500;52.632;20.656;2022-12-13T13:03:29;18.40;;;9.70;;
75851;SDS011;64500;52.632;20.656;2022-12-13T13:06:01;17.50;;;10.20;;
75851;SDS011;64500;52.632;20.656;2022-12-13T13:11:28;17.60;;;10.00;;
75851;SDS011;64500;52.632;20.656;2022-12-13T13:16:40;18.00;;;10.00;;
75851;SDS011;64500;52.632;20.656;2022-12-13T13:21:40;17.80;;;9.20;;
75851;SDS011;64500;52.632;20.656;2022-12-13T13:24:13;20.10;;;9.60;;
75851;SDS011;64500;52.632;20.656;2022-12-13T13:27:30;19.70;;;10.00;;
75851;SDS011;64500;52.632;20.656;2022-12-13T13:29:38;16.00;;;9.50;;
75851;SDS011;64500;52.632;20.656;2022-12-13T13:34:40;17.20;;;10.10;;
75851;SDS011;64500;52.632;20.656;2022-12-13T13:48:32;19.40;;;10.60;;
75851;SDS011;64500;52.632;20.656;2022-12-13T14:00:09;17.60;;;9.80;;
75851;SDS011;64500;52.632;20.656;2022-12-13T14:03:04;17.40;;;9.50;;
75851;SDS011;64500;52.632;20.656;2022-12-13T14:05:50;19.60;;;10.50;;
75851;SDS011;64500;52.632;20.656;2022-12-13T14:29:42;22.30;;;10.50;;
75851;SDS011;64500;52.632;20.656;2022-12-13T14:32:30;20.30;;;10.90;;
75851;SDS011;64500;52.632;20.656;2022-12-13T14:35:02;21.00;;;10.50;;
75851;SDS011;64500;52.632;20.656;2022-12-13T14:37:31;20.10;;;10.80;;
75851;SDS011;64500;52.632;20.656;2022-12-13T14:42:50;19.70;;;10.50;;
75851;SDS011;64500;52.632;20.656;2022-12-13T14:45:22;21.40;;;11.50;;
75851;SDS011;64500;52.632;20.656;2022-12-13T14:47:52;19.30;;;11.30;;
75851;SDS011;64500;52.632;20.656;2022-12-13T14:50:20;18.90;;;10.60;;
75851;SDS011;64500;52.632;20.656;2022-12-13T14:52:48;22.10;;;11.80;;
75851;SDS011;64500;52.632;20.656;2022-12-13T14:55:23;17.90;;;10.80;;
75851;SDS011;64500;52.632;20.656;2022-12-13T14:57:55;19.60;;;11.40;;
75851;SDS011;64500;52.632;20.656;2022-12-13T15:00:25;16.50;;;9.90;;
75851;SDS011;64500;52.632;20.656;2022-12-13T15:02:57;19.50;;;10.50;;
75851;SDS011;64500;52.632;20.656;2022-12-13T15:05:36;19.10;;;10.90;;
75851;SDS011;64500;52.632;20.656;2022-12-13T15:08:07;18.10;;;10.30;;
75851;SDS011;64500;52.632;20.656;2022-12-13T15:10:38;20.30;;;11.10;;
75851;SDS011;64500;52.632;20.656;2022-12-13T15:13:26;19.00;;;10.80;;
75851;SDS011;64500;52.632;20.656;2022-12-13T15:15:58;19.20;;;11.60;;
75851;SDS011;64500;52.632;20.656;2022-12-13T15:18:28;19.70;;;10.80;;
75851;SDS011;64500;52.632;20.656;2022-12-13T15:20:56;18.30;;;10.60;;
75851;SDS011;64500;52.632;20.656;2022-12-13T15:23:36;17.80;;;10.20;;
75851;SDS011;64500;52.632;20.656;2022-12-13T15:28:42;22.50;;;10.90;;
75851;SDS011;64500;52.632;20.656;2022-12-13T15:31:10;17.80;;;10.00;;
75851;SDS011;64500;52.632;20.656;2022-12-13T15:33:39;18.10;;;10.00;;
75851;SDS011;64500;52.632;20.656;2022-12-13T15:36:08;19.30;;;10.30;;
75851;SDS011;64500;52.632;20.656;2022-12-13T15:38:36;18.70;;;9.80;;
75851;SDS011;64500;52.632;20.656;2022-12-13T15:41:11;18.50;;;9.70;;
75851;SDS011;64500;52.632;20.656;2022-12-13T15:43:43;17.90;;;10.30;;
75851;SDS011;64500;52.632;20.656;2022-12-13T15:46:12;20.10;;;11.00;;
75851;SDS011;64500;52.632;20.656;2022-12-13T15:48:41;19.50;;;10.60;;
75851;SDS011;64500;52.632;20.656;2022-12-13T15:53:37;18.80;;;10.00;;
75851;SDS011;64500;52.632;20.656;2022-12-13T15:58:54;18.40;;;9.90;;
75851;SDS011;64500;52.632;20.656;2022-12-13T16:01:26;18.80;;;10.60;;
75851;SDS011;64500;52.632;20.656;2022-12-13T16:03:58;19.70;;;10.70;;
75851;SDS011;64500;52.632;20.656;2022-12-13T16:06:30;17.90;;;9.30;;
75851;SDS011;64500;52.632;20.656;2022-12-13T16:08:59;18.40;;;10.20;;
75851;SDS011;64500;52.632;20.656;2022-12-13T16:17:41;21.00;;;10.80;;
75851;SDS011;64500;52.632;20.656;2022-12-13T16:19:55;18.60;;;10.50;;
75851;SDS011;64500;52.632;20.656;2022-12-13T16:22:24;19.20;;;10.00;;
75851;SDS011;64500;52.632;20.656;2022-12-13T16:24:51;20.50;;;10.90;;
75851;SDS011;64500;52.632;20.656;2022-12-13T16:27:19;19.00;;;10.60;;
75851;SDS011;64500;52.632;20.656;2022-12-13T16:29:46;17.40;;;10.40;;
75851;SDS011;64500;52.632;20.656;2022-12-13T16:32:13;20.50;;;11.00;;
75851;SDS011;64500;52.632;20.656;2022-12-13T16:34:41;17.70;;;10.20;;
75851;SDS011;64500;52.632;20.656;2022-12-13T16:37:08;20.00;;;10.80;;
75851;SDS011;64500;52.632;20.656;2022-12-13T16:39:37;20.40;;;11.30;;
75851;SDS011;64500;52.632;20.656;2022-12-13T16:42:04;21.30;;;11.00;;
75851;SDS011;64500;52.632;20.656;2022-12-13T16:44:33;20.20;;;10.30;;
75851;SDS011;64500;52.632;20.656;2022-12-13T16:47:07;20.10;;;10.60;;
75851;SDS011;64500;52.632;20.656;2022-12-13T16:49:37;18.30;;;10.10;;
75851;SDS011;64500;52.632;20.656;2022-12-13T16:52:04;17.70;;;10.20;;
75851;SDS011;64500;52.632;20.656;2022-12-13T16:54:33;20.10;;;10.40;;